sensor_id;sensor_type;location;lat;lon;timestamp;P1;durP1;ratioP1;P2;durP2;ratioP2
3293;SDS011;1659;51.470;6.770;2024-02-15T00:00:09;18.13;;;10.70;;
3293;SDS011;1659;51.470;6.770;2024-02-15T00:02:36;27.97;;;11.90;;
3293;SDS011;1659;51.470;6.770;2024-02-15T00:05:05;24.10;;;12.37;;
3293;SDS011;1659;51.470;6.770;2024-02-15T00:07:33;30.73;;;12.90;;
3293;SDS011;1659;51.470;6.770;2024-02-15T00:10:00;26.80;;;11.67;;
3293;SDS011;1659;51.470;6.770;2024-02-15T00:12:28;20.30;;;12.00;;
3293;SDS011;1659;51.470;6.770;2024-02-15T00:14:55;18.43;;;11.50;;
3293;SDS011;1659;51.470;6.770;2024-02-15T00:17:23;22.70;;;11.67;;
3293;SDS011;1659;51.470;6.770;2024-02-15T00:19:50;30.57;;;11.60;;
3293;SDS011;1659;51.470;6.770;2024-02-15T00:22:18;22.93;;;10.50;;
3293;SDS011;1659;51.470;6.770;2024-02-15T00:24:46;23.60;;;10.83;;
3293;SDS011;1659;51.470;6.770;2024-02-15T00:27:13;22.33;;;11.23;;
3293;SDS011;1659;51.470;6.770;2024-02-15T00:29:40;19.70;;;11.30;;
3293;SDS011;1659;51.470;6.770;2024-02-15T00:32:08;25.50;;;12.20;;
3293;SDS011;1659;51.470;6.770;2024-02-15T00:34:35;21.37;;;11.80;;
3293;SDS011;1659;51.470;6.770;2024-02-15T00:37:02;22.40;;;12.30;;
3293;SDS011;1659;51.470;6.770;2024-02-15T00:39:30;19.70;;;11.13;;
3293;SDS011;1659;51.470;6.770;2024-02-15T00:41:57;25.93;;;12.27;;
3293;SDS011;1659;51.470;6.770;2024-02-15T00:44:25;21.23;;;10.90;;
3293;SDS011;1659;51.470;6.770;2024-02-15T00:46:51;26.80;;;12.07;;
3293;SDS011;1659;51.470;6.770;2024-02-15T00:49:18;24.60;;;12.67;;
3293;SDS011;1659;51.470;6.770;2024-02-15T00:51:45;22.30;;;12.07;;
3293;SDS011;1659;51.470;6.770;2024-02-15T00:54:13;25.37;;;10.70;;
3293;SDS011;1659;51.470;6.770;2024-02-15T00:56:40;22.13;;;11.47;;
3293;SDS011;1659;51.470;6.770;2024-02-15T00:59:07;24.37;;;12.57;;
3293;SDS011;1659;51.470;6.770;2024-02-15T01:01:34;24.00;;;12.47;;
3293;SDS011;1659;51.470;6.770;2024-02-15T01:04:03;23.90;;;12.33;;
3293;SDS011;1659;51.470;6.770;2024-02-15T01:06:29;21.63;;;12.43;;
3293;SDS011;1659;51.470;6.770;2024-02-15T01:08:56;29.27;;;12.97;;
3293;SDS011;1659;51.470;6.770;2024-02-15T01:11:23;30.23;;;13.90;;
3293;SDS011;1659;51.470;6.770;2024-02-15T01:13:52;26.00;;;11.70;;
3293;SDS011;1659;51.470;6.770;2024-02-15T01:16:18;27.63;;;13.63;;
3293;SDS011;1659;51.470;6.770;2024-02-15T01:18:46;25.20;;;12.30;;
3293;SDS011;1659;51.470;6.770;2024-02-15T01:21:13;32.43;;;12.47;;
3293;SDS011;1659;51.470;6.770;2024-02-15T01:23:39;25.50;;;12.93;;
3293;SDS011;1659;51.470;6.770;2024-02-15T01:26:06;34.47;;;13.60;;
3293;SDS011;1659;51.470;6.770;2024-02-15T01:28:33;30.87;;;14.10;;
3293;SDS011;1659;51.470;6.770;2024-02-15T01:31:01;30.50;;;14.47;;
3293;SDS011;1659;51.470;6.770;2024-02-15T01:33:28;32.00;;;16.47;;
3293;SDS011;1659;51.470;6.770;2024-02-15T01:35:54;36.77;;;16.13;;
3293;SDS011;1659;51.470;6.770;2024-02-15T01:38:21;36.47;;;15.27;;
3293;SDS011;1659;51.470;6.770;2024-02-15T01:40:48;31.40;;;14.30;;
3293;SDS011;1659;51.470;6.770;2024-02-15T01:43:14;31.13;;;12.93;;
3293;SDS011;1659;51.470;6.770;2024-02-15T01:45:41;18.23;;;12.30;;
3293;SDS011;1659;51.470;6.770;2024-02-15T01:48:09;28.70;;;11.90;;
3293;SDS011;1659;51.470;6.770;2024-02-15T01:50:36;27.07;;;12.60;;
3293;SDS011;1659;51.470;6.770;2024-02-15T01:53:03;27.97;;;12.37;;
3293;SDS011;1659;51.470;6.770;2024-02-15T01:55:33;24.20;;;13.67;;
3293;SDS011;1659;51.470;6.770;2024-02-15T01:58:00;29.77;;;13.50;;
3293;SDS011;1659;51.470;6.770;2024-02-15T02:00:27;28.57;;;16.20;;
3293;SDS011;1659;51.470;6.770;2024-02-15T02:02:54;26.53;;;13.77;;
3293;SDS011;1659;51.470;6.770;2024-02-15T02:05:28;30.90;;;13.43;;
3293;SDS011;1659;51.470;6.770;2024-02-15T02:07:56;31.97;;;12.70;;
3293;SDS011;1659;51.470;6.770;2024-02-15T02:10:26;27.47;;;13.40;;
3293;SDS011;1659;51.470;6.770;2024-02-15T02:12:57;22.60;;;10.53;;
3293;SDS011;1659;51.470;6.770;2024-02-15T02:15:24;21.53;;;10.67;;
3293;SDS011;1659;51.470;6.770;2024-02-15T02:17:51;25.67;;;11.47;;
3293;SDS011;1659;51.470;6.770;2024-02-15T02:20:17;22.27;;;10.77;;
3293;SDS011;1659;51.470;6.770;2024-02-15T02:22:46;18.83;;;11.13;;
3293;SDS011;1659;51.470;6.770;2024-02-15T02:25:18;19.83;;;11.33;;
3293;SDS011;1659;51.470;6.770;2024-02-15T02:27:45;23.23;;;10.93;;
3293;SDS011;1659;51.470;6.770;2024-02-15T02:30:14;22.33;;;10.17;;
3293;SDS011;1659;51.470;6.770;2024-02-15T02:32:43;18.73;;;9.07;;
3293;SDS011;1659;51.470;6.770;2024-02-15T02:35:10;22.13;;;10.60;;
3293;SDS011;1659;51.470;6.770;2024-02-15T02:37:38;21.73;;;9.20;;
3293;SDS011;1659;51.470;6.770;2024-02-15T02:40:05;30.00;;;12.30;;
3293;SDS011;1659;51.470;6.770;2024-02-15T02:42:35;19.70;;;9.73;;
3293;SDS011;1659;51.470;6.770;2024-02-15T02:45:01;19.40;;;9.13;;
3293;SDS011;1659;51.470;6.770;2024-02-15T02:47:27;15.53;;;9.00;;
3293;SDS011;1659;51.470;6.770;2024-02-15T02:49:53;18.70;;;10.67;;
3293;SDS011;1659;51.470;6.770;2024-02-15T02:52:20;23.07;;;11.30;;
3293;SDS011;1659;51.470;6.770;2024-02-15T02:54:46;24.13;;;11.13;;
3293;SDS011;1659;51.470;6.770;2024-02-15T02:57:13;27.77;;;9.93;;
3293;SDS011;1659;51.470;6.770;2024-02-15T02:59:41;23.77;;;10.07;;
3293;SDS011;1659;51.470;6.770;2024-02-15T03:02:07;23.77;;;9.10;;
3293;SDS011;1659;51.470;6.770;2024-02-15T03:04:34;18.60;;;7.43;;
3293;SDS011;1659;51.470;6.770;2024-02-15T03:07:00;21.30;;;8.83;;
3293;SDS011;1659;51.470;6.770;2024-02-15T03:09:27;20.50;;;9.47;;
3293;SDS011;1659;51.470;6.770;2024-02-15T03:11:54;16.83;;;8.67;;
3293;SDS011;1659;51.470;6.770;2024-02-15T03:14:21;17.53;;;8.47;;
3293;SDS011;1659;51.470;6.770;2024-02-15T03:16:49;12.50;;;7.37;;
3293;SDS011;1659;51.470;6.770;2024-02-15T03:19:15;14.37;;;7.60;;
3293;SDS011;1659;51.470;6.770;2024-02-15T03:21:42;12.93;;;7.93;;
3293;SDS011;1659;51.470;6.770;2024-02-15T03:24:11;18.40;;;9.03;;
3293;SDS011;1659;51.470;6.770;2024-02-15T03:26:38;15.53;;;8.30;;
3293;SDS011;1659;51.470;6.770;2024-02-15T03:29:05;24.80;;;9.50;;
3293;SDS011;1659;51.470;6.770;2024-02-15T03:31:33;14.70;;;7.63;;
3293;SDS011;1659;51.470;6.770;2024-02-15T03:34:02;21.43;;;8.40;;
3293;SDS011;1659;51.470;6.770;2024-02-15T03:36:29;27.13;;;8.30;;
3293;SDS011;1659;51.470;6.770;2024-02-15T03:38:55;11.83;;;7.80;;
3293;SDS011;1659;51.470;6.770;2024-02-15T03:41:22;12.63;;;7.23;;
3293;SDS011;1659;51.470;6.770;2024-02-15T03:43:49;13.53;;;7.43;;
3293;SDS011;1659;51.470;6.770;2024-02-15T03:46:16;16.90;;;7.23;;
3293;SDS011;1659;51.470;6.770;2024-02-15T03:48:43;14.43;;;8.20;;
3293;SDS011;1659;51.470;6.770;2024-02-15T03:51:15;18.50;;;6.97;;
3293;SDS011;1659;51.470;6.770;2024-02-15T03:53:42;12.70;;;6.57;;
3293;SDS011;1659;51.470;6.770;2024-02-15T03:56:08;12.50;;;6.97;;
3293;SDS011;1659;51.470;6.770;2024-02-15T03:58:35;14.83;;;7.57;;
3293;SDS011;1659;51.470;6.770;2024-02-15T04:01:02;12.97;;;6.47;;
3293;SDS011;1659;51.470;6.770;2024-02-15T04:03:31;12.97;;;7.03;;
3293;SDS011;1659;51.470;6.770;2024-02-15T04:05:59;12.10;;;7.00;;
3293;SDS011;1659;51.470;6.770;2024-02-15T04:08:27;15.90;;;7.40;;
3293;SDS011;1659;51.470;6.770;2024-02-15T04:10:54;10.70;;;6.70;;
3293;SDS011;1659;51.470;6.770;2024-02-15T04:13:22;14.03;;;5.70;;
3293;SDS011;1659;51.470;6.770;2024-02-15T04:15:49;12.97;;;7.20;;
3293;SDS011;1659;51.470;6.770;2024-02-15T04:18:18;13.83;;;7.13;;
3293;SDS011;1659;51.470;6.770;2024-02-15T04:20:44;25.23;;;7.30;;
3293;SDS011;1659;51.470;6.770;2024-02-15T04:23:11;10.77;;;6.33;;
3293;SDS011;1659;51.470;6.770;2024-02-15T04:25:39;17.83;;;7.07;;
3293;SDS011;1659;51.470;6.770;2024-02-15T04:28:09;19.70;;;6.23;;
3293;SDS011;1659;51.470;6.770;2024-02-15T04:30:35;11.63;;;6.40;;
3293;SDS011;1659;51.470;6.770;2024-02-15T04:33:03;9.10;;;6.57;;
3293;SDS011;1659;51.470;6.770;2024-02-15T04:35:30;12.83;;;6.57;;
3293;SDS011;1659;51.470;6.770;2024-02-15T04:37:57;10.70;;;6.33;;
3293;SDS011;1659;51.470;6.770;2024-02-15T04:40:23;10.73;;;6.20;;
3293;SDS011;1659;51.470;6.770;2024-02-15T04:42:52;20.27;;;6.77;;
3293;SDS011;1659;51.470;6.770;2024-02-15T04:45:18;13.23;;;6.23;;
3293;SDS011;1659;51.470;6.770;2024-02-15T04:47:47;14.13;;;6.60;;
3293;SDS011;1659;51.470;6.770;2024-02-15T04:50:16;10.00;;;6.80;;
3293;SDS011;1659;51.470;6.770;2024-02-15T04:52:44;11.90;;;6.20;;
3293;SDS011;1659;51.470;6.770;2024-02-15T04:55:13;7.47;;;5.50;;
3293;SDS011;1659;51.470;6.770;2024-02-15T04:57:40;10.27;;;5.80;;
3293;SDS011;1659;51.470;6.770;2024-02-15T05:00:09;12.27;;;6.67;;
3293;SDS011;1659;51.470;6.770;2024-02-15T05:02:38;10.10;;;6.70;;
3293;SDS011;1659;51.470;6.770;2024-02-15T05:05:06;9.57;;;6.13;;
3293;SDS011;1659;51.470;6.770;2024-02-15T05:07:33;10.03;;;5.80;;
3293;SDS011;1659;51.470;6.770;2024-02-15T05:09:59;11.17;;;6.47;;
3293;SDS011;1659;51.470;6.770;2024-02-15T05:12:27;11.00;;;6.70;;
3293;SDS011;1659;51.470;6.770;2024-02-15T05:14:53;10.20;;;6.50;;
3293;SDS011;1659;51.470;6.770;2024-02-15T05:17:22;8.83;;;6.93;;
3293;SDS011;1659;51.470;6.770;2024-02-15T05:19:48;12.03;;;5.97;;
3293;SDS011;1659;51.470;6.770;2024-02-15T05:22:15;14.80;;;7.00;;
3293;SDS011;1659;51.470;6.770;2024-02-15T05:24:43;9.53;;;6.00;;
3293;SDS011;1659;51.470;6.770;2024-02-15T05:27:10;9.20;;;5.93;;
3293;SDS011;1659;51.470;6.770;2024-02-15T05:29:37;11.17;;;7.20;;
3293;SDS011;1659;51.470;6.770;2024-02-15T05:32:06;16.37;;;7.70;;
3293;SDS011;1659;51.470;6.770;2024-02-15T05:34:35;14.47;;;9.87;;
3293;SDS011;1659;51.470;6.770;2024-02-15T05:37:04;20.77;;;8.40;;
3293;SDS011;1659;51.470;6.770;2024-02-15T05:39:31;11.00;;;7.47;;
3293;SDS011;1659;51.470;6.770;2024-02-15T05:41:59;12.60;;;7.80;;
3293;SDS011;1659;51.470;6.770;2024-02-15T05:44:26;17.87;;;6.50;;
3293;SDS011;1659;51.470;6.770;2024-02-15T05:46:53;14.67;;;8.10;;
3293;SDS011;1659;51.470;6.770;2024-02-15T05:49:19;15.30;;;7.70;;
3293;SDS011;1659;51.470;6.770;2024-02-15T05:51:50;13.00;;;7.20;;
3293;SDS011;1659;51.470;6.770;2024-02-15T05:54:18;8.47;;;6.90;;
3293;SDS011;1659;51.470;6.770;2024-02-15T05:56:47;13.10;;;7.30;;
3293;SDS011;1659;51.470;6.770;2024-02-15T05:59:17;15.23;;;5.93;;
3293;SDS011;1659;51.470;6.770;2024-02-15T06:01:45;9.73;;;6.30;;
3293;SDS011;1659;51.470;6.770;2024-02-15T06:04:13;12.90;;;6.00;;
3293;SDS011;1659;51.470;6.770;2024-02-15T06:06:40;10.50;;;5.60;;
3293;SDS011;1659;51.470;6.770;2024-02-15T06:09:09;8.60;;;5.70;;
3293;SDS011;1659;51.470;6.770;2024-02-15T06:11:35;13.23;;;6.23;;
3293;SDS011;1659;51.470;6.770;2024-02-15T06:14:02;7.60;;;5.40;;
3293;SDS011;1659;51.470;6.770;2024-02-15T06:16:28;12.30;;;7.40;;
3293;SDS011;1659;51.470;6.770;2024-02-15T06:18:55;14.23;;;6.53;;
3293;SDS011;1659;51.470;6.770;2024-02-15T06:21:22;9.70;;;5.60;;
3293;SDS011;1659;51.470;6.770;2024-02-15T06:23:49;14.00;;;6.30;;
3293;SDS011;1659;51.470;6.770;2024-02-15T06:26:17;10.30;;;5.53;;
3293;SDS011;1659;51.470;6.770;2024-02-15T06:28:46;10.33;;;6.30;;
3293;SDS011;1659;51.470;6.770;2024-02-15T06:31:30;10.43;;;7.00;;
3293;SDS011;1659;51.470;6.770;2024-02-15T06:34:15;7.00;;;5.97;;
3293;SDS011;1659;51.470;6.770;2024-02-15T06:36:59;14.73;;;5.77;;
3293;SDS011;1659;51.470;6.770;2024-02-15T06:39:43;7.03;;;5.90;;
3293;SDS011;1659;51.470;6.770;2024-02-15T06:42:12;8.03;;;5.40;;
3293;SDS011;1659;51.470;6.770;2024-02-15T06:44:41;16.93;;;6.23;;
3293;SDS011;1659;51.470;6.770;2024-02-15T06:47:08;13.20;;;6.90;;
3293;SDS011;1659;51.470;6.770;2024-02-15T06:49:36;12.33;;;6.63;;
3293;SDS011;1659;51.470;6.770;2024-02-15T06:52:04;14.23;;;6.10;;
3293;SDS011;1659;51.470;6.770;2024-02-15T06:54:32;10.57;;;6.07;;
3293;SDS011;1659;51.470;6.770;2024-02-15T06:56:58;15.77;;;6.17;;
3293;SDS011;1659;51.470;6.770;2024-02-15T06:59:28;9.53;;;6.37;;
3293;SDS011;1659;51.470;6.770;2024-02-15T07:01:54;7.07;;;5.80;;
3293;SDS011;1659;51.470;6.770;2024-02-15T07:04:21;9.53;;;6.10;;
3293;SDS011;1659;51.470;6.770;2024-02-15T07:06:50;14.50;;;5.77;;
3293;SDS011;1659;51.470;6.770;2024-02-15T07:09:19;10.37;;;5.43;;
3293;SDS011;1659;51.470;6.770;2024-02-15T07:11:47;11.53;;;7.00;;
3293;SDS011;1659;51.470;6.770;2024-02-15T07:14:14;14.00;;;7.30;;
3293;SDS011;1659;51.470;6.770;2024-02-15T07:16:45;12.57;;;5.90;;
3293;SDS011;1659;51.470;6.770;2024-02-15T07:19:11;12.83;;;6.07;;
3293;SDS011;1659;51.470;6.770;2024-02-15T07:21:38;17.40;;;6.97;;
3293;SDS011;1659;51.470;6.770;2024-02-15T07:24:05;12.70;;;6.77;;
3293;SDS011;1659;51.470;6.770;2024-02-15T07:26:32;12.53;;;7.30;;
3293;SDS011;1659;51.470;6.770;2024-02-15T07:29:00;12.30;;;6.83;;
3293;SDS011;1659;51.470;6.770;2024-02-15T07:31:27;10.30;;;6.50;;
3293;SDS011;1659;51.470;6.770;2024-02-15T07:33:56;13.70;;;7.20;;
3293;SDS011;1659;51.470;6.770;2024-02-15T07:36:23;8.60;;;6.30;;
3293;SDS011;1659;51.470;6.770;2024-02-15T07:38:51;9.87;;;6.83;;
3293;SDS011;1659;51.470;6.770;2024-02-15T07:41:18;9.60;;;6.67;;
3293;SDS011;1659;51.470;6.770;2024-02-15T07:43:47;14.03;;;6.60;;
3293;SDS011;1659;51.470;6.770;2024-02-15T07:46:14;13.70;;;7.53;;
3293;SDS011;1659;51.470;6.770;2024-02-15T07:48:41;14.03;;;6.70;;
3293;SDS011;1659;51.470;6.770;2024-02-15T07:51:12;11.80;;;6.70;;
3293;SDS011;1659;51.470;6.770;2024-02-15T07:53:40;11.50;;;6.60;;
3293;SDS011;1659;51.470;6.770;2024-02-15T07:56:08;12.87;;;6.60;;
3293;SDS011;1659;51.470;6.770;2024-02-15T07:58:35;15.70;;;7.40;;
3293;SDS011;1659;51.470;6.770;2024-02-15T08:01:05;12.97;;;6.80;;
3293;SDS011;1659;51.470;6.770;2024-02-15T08:03:32;11.60;;;7.60;;
3293;SDS011;1659;51.470;6.770;2024-02-15T08:06:00;17.20;;;7.50;;
3293;SDS011;1659;51.470;6.770;2024-02-15T08:08:28;14.40;;;6.43;;
3293;SDS011;1659;51.470;6.770;2024-02-15T08:10:54;12.97;;;6.77;;
3293;SDS011;1659;51.470;6.770;2024-02-15T08:13:21;13.90;;;6.83;;
3293;SDS011;1659;51.470;6.770;2024-02-15T08:15:53;10.10;;;6.87;;
3293;SDS011;1659;51.470;6.770;2024-02-15T08:18:19;13.80;;;6.57;;
3293;SDS011;1659;51.470;6.770;2024-02-15T08:20:46;14.23;;;6.50;;
3293;SDS011;1659;51.470;6.770;2024-02-15T08:23:12;14.83;;;6.20;;
3293;SDS011;1659;51.470;6.770;2024-02-15T08:25:40;12.43;;;6.07;;
3293;SDS011;1659;51.470;6.770;2024-02-15T08:28:07;9.80;;;6.80;;
3293;SDS011;1659;51.470;6.770;2024-02-15T08:30:33;13.00;;;7.77;;
3293;SDS011;1659;51.470;6.770;2024-02-15T08:33:02;11.70;;;7.20;;
3293;SDS011;1659;51.470;6.770;2024-02-15T08:35:29;15.50;;;7.43;;
3293;SDS011;1659;51.470;6.770;2024-02-15T08:37:57;11.73;;;6.07;;
3293;SDS011;1659;51.470;6.770;2024-02-15T08:40:23;11.20;;;5.80;;
3293;SDS011;1659;51.470;6.770;2024-02-15T08:42:52;8.33;;;6.47;;
3293;SDS011;1659;51.470;6.770;2024-02-15T08:45:19;9.20;;;6.67;;
3293;SDS011;1659;51.470;6.770;2024-02-15T08:47:46;11.37;;;6.33;;
3293;SDS011;1659;51.470;6.770;2024-02-15T08:50:14;13.53;;;6.50;;
3293;SDS011;1659;51.470;6.770;2024-02-15T08:52:42;19.50;;;6.93;;
3293;SDS011;1659;51.470;6.770;2024-02-15T08:55:09;12.33;;;6.50;;
3293;SDS011;1659;51.470;6.770;2024-02-15T08:57:39;11.27;;;6.50;;
3293;SDS011;1659;51.470;6.770;2024-02-15T09:00:08;13.90;;;6.60;;
3293;SDS011;1659;51.470;6.770;2024-02-15T09:02:38;14.33;;;7.60;;
3293;SDS011;1659;51.470;6.770;2024-02-15T09:05:05;11.23;;;6.40;;
3293;SDS011;1659;51.470;6.770;2024-02-15T09:07:32;10.37;;;6.53;;
3293;SDS011;1659;51.470;6.770;2024-02-15T09:09:59;12.07;;;4.93;;
3293;SDS011;1659;51.470;6.770;2024-02-15T09:12:25;12.27;;;6.43;;
3293;SDS011;1659;51.470;6.770;2024-02-15T09:14:52;8.40;;;6.00;;
3293;SDS011;1659;51.470;6.770;2024-02-15T09:17:20;12.93;;;6.33;;
3293;SDS011;1659;51.470;6.770;2024-02-15T09:19:48;9.53;;;5.30;;
3293;SDS011;1659;51.470;6.770;2024-02-15T09:22:15;9.13;;;5.97;;
3293;SDS011;1659;51.470;6.770;2024-02-15T09:24:42;13.27;;;7.60;;
3293;SDS011;1659;51.470;6.770;2024-02-15T09:27:08;17.13;;;7.20;;
3293;SDS011;1659;51.470;6.770;2024-02-15T09:29:37;10.00;;;5.40;;
3293;SDS011;1659;51.470;6.770;2024-02-15T09:32:05;10.10;;;6.73;;
3293;SDS011;1659;51.470;6.770;2024-02-15T09:34:33;7.10;;;6.00;;
3293;SDS011;1659;51.470;6.770;2024-02-15T09:37:00;18.17;;;6.63;;
3293;SDS011;1659;51.470;6.770;2024-02-15T09:39:26;8.27;;;6.37;;
3293;SDS011;1659;51.470;6.770;2024-02-15T09:41:53;8.67;;;5.77;;
3293;SDS011;1659;51.470;6.770;2024-02-15T09:44:23;16.10;;;6.00;;
3293;SDS011;1659;51.470;6.770;2024-02-15T09:46:53;10.60;;;5.43;;
3293;SDS011;1659;51.470;6.770;2024-02-15T09:49:28;6.67;;;5.27;;
3293;SDS011;1659;51.470;6.770;2024-02-15T09:51:56;9.43;;;5.50;;
3293;SDS011;1659;51.470;6.770;2024-02-15T09:54:25;7.37;;;5.00;;
3293;SDS011;1659;51.470;6.770;2024-02-15T09:56:52;11.53;;;5.30;;
3293;SDS011;1659;51.470;6.770;2024-02-15T09:59:19;12.10;;;5.70;;
3293;SDS011;1659;51.470;6.770;2024-02-15T10:01:47;10.50;;;5.60;;
3293;SDS011;1659;51.470;6.770;2024-02-15T10:04:15;11.17;;;4.87;;
3293;SDS011;1659;51.470;6.770;2024-02-15T10:06:42;8.90;;;5.50;;
3293;SDS011;1659;51.470;6.770;2024-02-15T10:09:26;7.30;;;4.80;;
3293;SDS011;1659;51.470;6.770;2024-02-15T10:11:54;11.03;;;5.47;;
3293;SDS011;1659;51.470;6.770;2024-02-15T10:14:22;8.80;;;4.97;;
3293;SDS011;1659;51.470;6.770;2024-02-15T10:16:49;6.70;;;4.57;;
3293;SDS011;1659;51.470;6.770;2024-02-15T10:19:16;14.27;;;5.80;;
3293;SDS011;1659;51.470;6.770;2024-02-15T10:21:43;14.93;;;4.80;;
3293;SDS011;1659;51.470;6.770;2024-02-15T10:24:10;6.73;;;5.33;;
3293;SDS011;1659;51.470;6.770;2024-02-15T10:26:39;6.60;;;4.97;;
3293;SDS011;1659;51.470;6.770;2024-02-15T10:29:05;16.33;;;5.23;;
3293;SDS011;1659;51.470;6.770;2024-02-15T10:31:34;14.00;;;5.27;;
3293;SDS011;1659;51.470;6.770;2024-02-15T10:34:04;15.10;;;4.93;;
3293;SDS011;1659;51.470;6.770;2024-02-15T10:36:32;6.87;;;4.60;;
3293;SDS011;1659;51.470;6.770;2024-02-15T10:39:12;16.40;;;5.63;;
3293;SDS011;1659;51.470;6.770;2024-02-15T10:41:46;7.80;;;5.07;;
3293;SDS011;1659;51.470;6.770;2024-02-15T10:44:16;9.87;;;4.50;;
3293;SDS011;1659;51.470;6.770;2024-02-15T10:46:44;5.57;;;4.90;;
3293;SDS011;1659;51.470;6.770;2024-02-15T10:49:16;4.20;;;3.13;;
3293;SDS011;1659;51.470;6.770;2024-02-15T10:51:48;6.50;;;4.50;;
3293;SDS011;1659;51.470;6.770;2024-02-15T10:54:20;7.40;;;5.07;;
3293;SDS011;1659;51.470;6.770;2024-02-15T10:56:59;9.27;;;4.50;;
3293;SDS011;1659;51.470;6.770;2024-02-15T10:59:31;4.00;;;3.60;;
3293;SDS011;1659;51.470;6.770;2024-02-15T11:02:01;10.47;;;4.40;;
3293;SDS011;1659;51.470;6.770;2024-02-15T11:04:40;8.40;;;3.40;;
3293;SDS011;1659;51.470;6.770;2024-02-15T11:07:09;11.70;;;4.30;;
3293;SDS011;1659;51.470;6.770;2024-02-15T11:09:37;7.23;;;4.20;;
3293;SDS011;1659;51.470;6.770;2024-02-15T11:12:06;10.73;;;5.17;;
3293;SDS011;1659;51.470;6.770;2024-02-15T11:14:33;7.80;;;4.97;;
3293;SDS011;1659;51.470;6.770;2024-02-15T11:17:01;7.10;;;4.30;;
3293;SDS011;1659;51.470;6.770;2024-02-15T11:22:16;7.33;;;3.70;;
3293;SDS011;1659;51.470;6.770;2024-02-15T11:24:46;12.20;;;3.80;;
3293;SDS011;1659;51.470;6.770;2024-02-15T11:27:24;17.47;;;4.40;;
3293;SDS011;1659;51.470;6.770;2024-02-15T11:29:53;5.90;;;3.60;;
3293;SDS011;1659;51.470;6.770;2024-02-15T11:32:36;6.63;;;3.80;;
3293;SDS011;1659;51.470;6.770;2024-02-15T11:35:04;4.57;;;4.13;;
3293;SDS011;1659;51.470;6.770;2024-02-15T11:40:28;8.93;;;4.13;;
3293;SDS011;1659;51.470;6.770;2024-02-15T11:46:19;4.97;;;3.47;;
3293;SDS011;1659;51.470;6.770;2024-02-15T11:48:46;8.40;;;4.47;;
3293;SDS011;1659;51.470;6.770;2024-02-15T11:51:24;11.10;;;4.77;;
3293;SDS011;1659;51.470;6.770;2024-02-15T11:53:58;11.70;;;4.33;;
3293;SDS011;1659;51.470;6.770;2024-02-15T11:56:25;6.30;;;4.57;;
3293;SDS011;1659;51.470;6.770;2024-02-15T11:59:02;13.30;;;5.63;;
3293;SDS011;1659;51.470;6.770;2024-02-15T12:01:31;9.73;;;4.57;;
3293;SDS011;1659;51.470;6.770;2024-02-15T12:04:16;5.73;;;5.13;;
3293;SDS011;1659;51.470;6.770;2024-02-15T12:07:01;6.70;;;3.60;;
3293;SDS011;1659;51.470;6.770;2024-02-15T12:09:46;6.57;;;4.10;;
3293;SDS011;1659;51.470;6.770;2024-02-15T12:12:38;5.60;;;3.97;;
3293;SDS011;1659;51.470;6.770;2024-02-15T12:15:34;12.33;;;4.00;;
3293;SDS011;1659;51.470;6.770;2024-02-15T12:18:18;5.90;;;5.40;;
3293;SDS011;1659;51.470;6.770;2024-02-15T12:21:03;11.33;;;4.47;;
3293;SDS011;1659;51.470;6.770;2024-02-15T12:23:34;8.60;;;4.70;;
3293;SDS011;1659;51.470;6.770;2024-02-15T12:26:00;15.20;;;5.07;;
3293;SDS011;1659;51.470;6.770;2024-02-15T12:28:28;9.00;;;4.27;;
3293;SDS011;1659;51.470;6.770;2024-02-15T12:30:57;6.00;;;4.20;;
3293;SDS011;1659;51.470;6.770;2024-02-15T12:33:23;5.67;;;4.03;;
3293;SDS011;1659;51.470;6.770;2024-02-15T12:35:52;3.87;;;3.47;;
3293;SDS011;1659;51.470;6.770;2024-02-15T12:38:30;11.13;;;3.40;;
3293;SDS011;1659;51.470;6.770;2024-02-15T12:40:56;8.40;;;3.50;;
3293;SDS011;1659;51.470;6.770;2024-02-15T12:43:22;4.90;;;3.30;;
3293;SDS011;1659;51.470;6.770;2024-02-15T12:45:49;9.60;;;4.33;;
3293;SDS011;1659;51.470;6.770;2024-02-15T12:48:18;9.90;;;3.83;;
3293;SDS011;1659;51.470;6.770;2024-02-15T12:50:44;6.47;;;3.23;;
3293;SDS011;1659;51.470;6.770;2024-02-15T12:53:11;8.63;;;3.00;;
3293;SDS011;1659;51.470;6.770;2024-02-15T12:55:39;4.70;;;3.63;;
3293;SDS011;1659;51.470;6.770;2024-02-15T12:58:06;5.07;;;2.93;;
3293;SDS011;1659;51.470;6.770;2024-02-15T13:00:38;7.87;;;3.20;;
3293;SDS011;1659;51.470;6.770;2024-02-15T13:03:06;7.90;;;3.77;;
3293;SDS011;1659;51.470;6.770;2024-02-15T13:05:36;5.77;;;3.20;;
3293;SDS011;1659;51.470;6.770;2024-02-15T13:08:03;4.53;;;2.87;;
3293;SDS011;1659;51.470;6.770;2024-02-15T13:10:34;10.30;;;2.97;;
3293;SDS011;1659;51.470;6.770;2024-02-15T13:13:01;4.23;;;2.97;;
3293;SDS011;1659;51.470;6.770;2024-02-15T13:15:28;5.20;;;3.47;;
3293;SDS011;1659;51.470;6.770;2024-02-15T13:17:57;5.33;;;3.33;;
3293;SDS011;1659;51.470;6.770;2024-02-15T13:20:25;5.13;;;3.50;;
3293;SDS011;1659;51.470;6.770;2024-02-15T13:22:58;4.70;;;3.80;;
3293;SDS011;1659;51.470;6.770;2024-02-15T13:25:33;6.87;;;3.57;;
3293;SDS011;1659;51.470;6.770;2024-02-15T13:28:01;6.80;;;3.17;;
3293;SDS011;1659;51.470;6.770;2024-02-15T13:30:29;3.07;;;2.77;;
3293;SDS011;1659;51.470;6.770;2024-02-15T13:32:56;4.20;;;2.67;;
3293;SDS011;1659;51.470;6.770;2024-02-15T13:35:22;2.73;;;2.50;;
3293;SDS011;1659;51.470;6.770;2024-02-15T13:37:49;4.20;;;2.43;;
3293;SDS011;1659;51.470;6.770;2024-02-15T13:40:20;3.67;;;3.00;;
3293;SDS011;1659;51.470;6.770;2024-02-15T13:42:49;9.30;;;2.87;;
3293;SDS011;1659;51.470;6.770;2024-02-15T13:45:18;6.53;;;2.60;;
3293;SDS011;1659;51.470;6.770;2024-02-15T13:47:45;3.63;;;2.80;;
3293;SDS011;1659;51.470;6.770;2024-02-15T13:50:15;5.43;;;3.30;;
3293;SDS011;1659;51.470;6.770;2024-02-15T13:52:42;5.50;;;2.90;;
3293;SDS011;1659;51.470;6.770;2024-02-15T13:55:12;5.83;;;2.70;;
3293;SDS011;1659;51.470;6.770;2024-02-15T13:57:42;4.33;;;3.07;;
3293;SDS011;1659;51.470;6.770;2024-02-15T14:00:10;2.90;;;2.60;;
3293;SDS011;1659;51.470;6.770;2024-02-15T14:02:46;7.40;;;3.07;;
3293;SDS011;1659;51.470;6.770;2024-02-15T14:05:13;5.10;;;2.93;;
3293;SDS011;1659;51.470;6.770;2024-02-15T14:07:42;4.67;;;2.80;;
3293;SDS011;1659;51.470;6.770;2024-02-15T14:10:10;6.80;;;2.57;;
3293;SDS011;1659;51.470;6.770;2024-02-15T14:12:37;2.90;;;2.40;;
3293;SDS011;1659;51.470;6.770;2024-02-15T14:15:06;8.10;;;2.27;;
3293;SDS011;1659;51.470;6.770;2024-02-15T14:17:33;6.43;;;2.33;;
3293;SDS011;1659;51.470;6.770;2024-02-15T14:20:00;2.57;;;2.37;;
3293;SDS011;1659;51.470;6.770;2024-02-15T14:22:26;4.30;;;2.63;;
3293;SDS011;1659;51.470;6.770;2024-02-15T14:24:54;5.57;;;2.73;;
3293;SDS011;1659;51.470;6.770;2024-02-15T14:27:21;6.17;;;2.57;;
3293;SDS011;1659;51.470;6.770;2024-02-15T14:29:48;6.43;;;2.30;;
3293;SDS011;1659;51.470;6.770;2024-02-15T14:32:29;3.37;;;2.20;;
3293;SDS011;1659;51.470;6.770;2024-02-15T14:35:16;4.40;;;2.53;;
3293;SDS011;1659;51.470;6.770;2024-02-15T14:37:43;5.77;;;2.80;;
3293;SDS011;1659;51.470;6.770;2024-02-15T14:40:10;3.23;;;2.50;;
3293;SDS011;1659;51.470;6.770;2024-02-15T14:42:40;11.83;;;3.10;;
3293;SDS011;1659;51.470;6.770;2024-02-15T14:45:07;3.20;;;2.00;;
3293;SDS011;1659;51.470;6.770;2024-02-15T14:47:36;6.10;;;2.43;;
3293;SDS011;1659;51.470;6.770;2024-02-15T14:50:03;3.20;;;2.57;;
3293;SDS011;1659;51.470;6.770;2024-02-15T14:52:33;4.57;;;2.90;;
3293;SDS011;1659;51.470;6.770;2024-02-15T14:55:00;4.97;;;2.30;;
3293;SDS011;1659;51.470;6.770;2024-02-15T14:57:30;4.43;;;2.27;;
3293;SDS011;1659;51.470;6.770;2024-02-15T14:59:56;3.97;;;2.10;;
3293;SDS011;1659;51.470;6.770;2024-02-15T15:02:23;4.37;;;2.80;;
3293;SDS011;1659;51.470;6.770;2024-02-15T15:04:51;5.07;;;2.47;;
3293;SDS011;1659;51.470;6.770;2024-02-15T15:07:44;3.53;;;3.00;;
3293;SDS011;1659;51.470;6.770;2024-02-15T15:10:28;4.43;;;3.60;;
3293;SDS011;1659;51.470;6.770;2024-02-15T15:13:12;5.03;;;2.80;;
3293;SDS011;1659;51.470;6.770;2024-02-15T15:15:38;3.70;;;2.57;;
3293;SDS011;1659;51.470;6.770;2024-02-15T15:18:05;5.67;;;2.40;;
3293;SDS011;1659;51.470;6.770;2024-02-15T15:20:34;2.63;;;2.30;;